sensor_id;sensor_type;location;lat;lon;timestamp;temperature;humidity
29713;DHT22;16623;53.632;10.016;2022-11-04T00:01:58;11.20;99.90
29713;DHT22;16623;53.632;10.016;2022-11-04T00:04:25;11.10;99.90
29713;DHT22;16623;53.632;10.016;2022-11-04T00:06:52;11.10;99.90
29713;DHT22;16623;53.632;10.016;2022-11-04T00:09:20;11.00;99.90
29713;DHT22;16623;53.632;10.016;2022-11-04T00:11:46;11.00;99.90
29713;DHT22;16623;53.632;10.016;2022-11-04T00:14:31;11.10;99.90
29713;DHT22;16623;53.632;10.016;2022-11-04T00:16:58;11.00;99.90
29713;DHT22;16623;53.632;10.016;2022-11-04T00:19:42;11.00;99.90
29713;DHT22;16623;53.632;10.016;2022-11-04T00:22:26;11.00;99.90
29713;DHT22;16623;53.632;10.016;2022-11-04T00:25:17;11.00;99.90
29713;DHT22;16623;53.632;10.016;2022-11-04T00:28:03;11.00;99.90
29713;DHT22;16623;53.632;10.016;2022-11-04T00:30:51;11.00;99.90
29713;DHT22;16623;53.632;10.016;2022-11-04T00:33:16;11.00;99.90
29713;DHT22;16623;53.632;10.016;2022-11-04T00:35:52;11.00;99.90
29713;DHT22;16623;53.632;10.016;2022-11-04T00:38:18;10.90;99.90
29713;DHT22;16623;53.632;10.016;2022-11-04T00:40:44;10.90;99.90
29713;DHT22;16623;53.632;10.016;2022-11-04T00:43:09;10.90;99.90
29713;DHT22;16623;53.632;10.016;2022-11-04T00:45:35;10.90;99.90
29713;DHT22;16623;53.632;10.016;2022-11-04T00:48:01;10.90;99.90
29713;DHT22;16623;53.632;10.016;2022-11-04T00:50:26;10.90;99.90
29713;DHT22;16623;53.632;10.016;2022-11-04T00:52:58;10.90;99.90
29713;DHT22;16623;53.632;10.016;2022-11-04T00:55:23;10.90;99.90
29713;DHT22;16623;53.632;10.016;2022-11-04T00:57:49;11.00;99.90
29713;DHT22;16623;53.632;10.016;2022-11-04T01:00:15;11.00;99.90
29713;DHT22;16623;53.632;10.016;2022-11-04T01:02:40;11.00;99.90
29713;DHT22;16623;53.632;10.016;2022-11-04T01:05:06;10.90;99.90
29713;DHT22;16623;53.632;10.016;2022-11-04T01:07:32;11.00;99.90
29713;DHT22;16623;53.632;10.016;2022-11-04T01:09:58;11.00;99.90
29713;DHT22;16623;53.632;10.016;2022-11-04T01:12:23;10.90;99.90
29713;DHT22;16623;53.632;10.016;2022-11-04T01:14:48;11.10;99.90
29713;DHT22;16623;53.632;10.016;2022-11-04T01:17:14;11.10;99.90
29713;DHT22;16623;53.632;10.016;2022-11-04T01:19:41;11.10;99.90
29713;DHT22;16623;53.632;10.016;2022-11-04T01:22:06;11.20;99.90
29713;DHT22;16623;53.632;10.016;2022-11-04T01:24:40;11.10;99.90
29713;DHT22;16623;53.632;10.016;2022-11-04T01:27:05;11.10;99.90
29713;DHT22;16623;53.632;10.016;2022-11-04T01:29:31;11.20;99.90
29713;DHT22;16623;53.632;10.016;2022-11-04T01:31:56;11.20;99.90
29713;DHT22;16623;53.632;10.016;2022-11-04T01:34:22;11.10;99.90
29713;DHT22;16623;53.632;10.016;2022-11-04T01:36:47;11.20;99.90
29713;DHT22;16623;53.632;10.016;2022-11-04T01:39:13;11.20;99.90
29713;DHT22;16623;53.632;10.016;2022-11-04T01:41:39;11.20;99.90
29713;DHT22;16623;53.632;10.016;2022-11-04T01:44:44;11.20;99.90
29713;DHT22;16623;53.632;10.016;2022-11-04T01:50:08;11.20;99.90
29713;DHT22;16623;53.632;10.016;2022-11-04T01:52:51;11.20;99.90
29713;DHT22;16623;53.632;10.016;2022-11-04T01:55:29;11.10;99.90
29713;DHT22;16623;53.632;10.016;2022-11-04T01:57:59;11.20;99.90
29713;DHT22;16623;53.632;10.016;2022-11-04T02:00:27;11.20;99.90
29713;DHT22;16623;53.632;10.016;2022-11-04T02:02:59;11.20;99.90
29713;DHT22;16623;53.632;10.016;2022-11-04T02:05:27;11.30;99.90
29713;DHT22;16623;53.632;10.016;2022-11-04T02:07:55;11.20;99.90
29713;DHT22;16623;53.632;10.016;2022-11-04T02:10:25;11.20;99.90
29713;DHT22;16623;53.632;10.016;2022-11-04T02:12:53;11.10;99.90
29713;DHT22;16623;53.632;10.016;2022-11-04T02:16:07;11.20;99.90
29713;DHT22;16623;53.632;10.016;2022-11-04T02:32:18;11.20;99.90
29713;DHT22;16623;53.632;10.016;2022-11-04T02:42:57;11.20;99.90
29713;DHT22;16623;53.632;10.016;2022-11-04T02:47:59;11.20;99.90
29713;DHT22;16623;53.632;10.016;2022-11-04T02:50:33;11.10;99.90
29713;DHT22;16623;53.632;10.016;2022-11-04T02:55:49;11.10;99.90
29713;DHT22;16623;53.632;10.016;2022-11-04T02:58:28;11.10;99.90
29713;DHT22;16623;53.632;10.016;2022-11-04T03:00:56;11.20;99.90
29713;DHT22;16623;53.632;10.016;2022-11-04T03:03:27;11.10;99.90
29713;DHT22;16623;53.632;10.016;2022-11-04T03:05:55;11.20;99.90
29713;DHT22;16623;53.632;10.016;2022-11-04T03:08:34;11.10;99.90
29713;DHT22;16623;53.632;10.016;2022-11-04T03:11:07;11.10;99.90
29713;DHT22;16623;53.632;10.016;2022-11-04T03:13:45;11.10;99.90
29713;DHT22;16623;53.632;10.016;2022-11-04T03:16:18;11.00;99.90
29713;DHT22;16623;53.632;10.016;2022-11-04T03:19:02;11.00;99.90
29713;DHT22;16623;53.632;10.016;2022-11-04T03:21:33;11.10;99.90
29713;DHT22;16623;53.632;10.016;2022-11-04T03:24:01;11.10;99.90
29713;DHT22;16623;53.632;10.016;2022-11-04T03:26:45;11.00;99.90
29713;DHT22;16623;53.632;10.016;2022-11-04T03:29:25;11.10;99.90
29713;DHT22;16623;53.632;10.016;2022-11-04T03:34:42;11.10;99.90
29713;DHT22;16623;53.632;10.016;2022-11-04T03:37:07;11.10;99.90
29713;DHT22;16623;53.632;10.016;2022-11-04T03:39:33;11.10;99.90
29713;DHT22;16623;53.632;10.016;2022-11-04T03:42:02;11.10;99.90
29713;DHT22;16623;53.632;10.016;2022-11-04T03:44:47;11.10;99.90
29713;DHT22;16623;53.632;10.016;2022-11-04T03:47:14;11.10;99.90
29713;DHT22;16623;53.632;10.016;2022-11-04T03:49:40;11.20;99.90
29713;DHT22;16623;53.632;10.016;2022-11-04T03:52:06;11.20;99.90
29713;DHT22;16623;53.632;10.016;2022-11-04T03:54:31;11.20;99.90
29713;DHT22;16623;53.632;10.016;2022-11-04T04:02:54;11.30;99.90
29713;DHT22;16623;53.632;10.016;2022-11-04T04:14:22;11.50;99.90
29713;DHT22;16623;53.632;10.016;2022-11-04T04:17:23;11.40;99.90
29713;DHT22;16623;53.632;10.016;2022-11-04T04:20:00;11.40;99.90
29713;DHT22;16623;53.632;10.016;2022-11-04T04:22:30;11.40;99.90
29713;DHT22;16623;53.632;10.016;2022-11-04T04:24:59;11.40;99.90
29713;DHT22;16623;53.632;10.016;2022-11-04T04:27:45;11.60;99.90
29713;DHT22;16623;53.632;10.016;2022-11-04T04:30:14;11.60;99.90
29713;DHT22;16623;53.632;10.016;2022-11-04T04:32:54;11.60;99.90
29713;DHT22;16623;53.632;10.016;2022-11-04T04:35:25;11.60;99.90
29713;DHT22;16623;53.632;10.016;2022-11-04T04:38:30;11.70;99.90
29713;DHT22;16623;53.632;10.016;2022-11-04T04:41:26;11.70;99.90
29713;DHT22;16623;53.632;10.016;2022-11-04T04:44:24;11.60;99.90
29713;DHT22;16623;53.632;10.016;2022-11-04T04:47:11;11.60;99.90
29713;DHT22;16623;53.632;10.016;2022-11-04T04:49:54;11.70;99.90
29713;DHT22;16623;53.632;10.016;2022-11-04T04:52:21;11.70;99.90
29713;DHT22;16623;53.632;10.016;2022-11-04T04:54:47;11.80;99.90
29713;DHT22;16623;53.632;10.016;2022-11-04T04:57:13;11.80;99.90
29713;DHT22;16623;53.632;10.016;2022-11-04T04:59:39;11.90;99.90
29713;DHT22;16623;53.632;10.016;2022-11-04T05:02:04;11.90;99.90
29713;DHT22;16623;53.632;10.016;2022-11-04T05:04:30;11.90;99.90
29713;DHT22;16623;53.632;10.016;2022-11-04T05:06:55;11.90;99.90
29713;DHT22;16623;53.632;10.016;2022-11-04T05:09:21;11.90;99.90
29713;DHT22;16623;53.632;10.016;2022-11-04T05:11:46;12.00;99.90
29713;DHT22;16623;53.632;10.016;2022-11-04T05:14:12;11.90;99.90
29713;DHT22;16623;53.632;10.016;2022-11-04T05:16:37;12.00;99.90
29713;DHT22;16623;53.632;10.016;2022-11-04T05:19:03;11.90;99.90
29713;DHT22;16623;53.632;10.016;2022-11-04T05:21:30;12.00;99.90
29713;DHT22;16623;53.632;10.016;2022-11-04T05:23:55;12.00;99.90
29713;DHT22;16623;53.632;10.016;2022-11-04T05:26:21;11.90;99.90
29713;DHT22;16623;53.632;10.016;2022-11-04T05:28:46;12.00;99.90
29713;DHT22;16623;53.632;10.016;2022-11-04T05:31:12;12.00;99.90
29713;DHT22;16623;53.632;10.016;2022-11-04T05:33:37;12.00;99.90
29713;DHT22;16623;53.632;10.016;2022-11-04T05:36:08;12.00;99.90
29713;DHT22;16623;53.632;10.016;2022-11-04T05:38:34;11.90;99.90
29713;DHT22;16623;53.632;10.016;2022-11-04T05:40:59;11.90;99.90
29713;DHT22;16623;53.632;10.016;2022-11-04T05:43:25;11.90;99.90
29713;DHT22;16623;53.632;10.016;2022-11-04T05:45:50;11.90;99.90
29713;DHT22;16623;53.632;10.016;2022-11-04T05:48:16;11.90;99.90
29713;DHT22;16623;53.632;10.016;2022-11-04T05:50:41;11.80;99.90
29713;DHT22;16623;53.632;10.016;2022-11-04T05:53:07;11.80;99.90
29713;DHT22;16623;53.632;10.016;2022-11-04T05:55:32;11.90;99.90
29713;DHT22;16623;53.632;10.016;2022-11-04T05:57:58;11.90;99.90
29713;DHT22;16623;53.632;10.016;2022-11-04T06:00:25;11.90;99.90
29713;DHT22;16623;53.632;10.016;2022-11-04T06:02:51;11.80;99.90
29713;DHT22;16623;53.632;10.016;2022-11-04T06:05:17;11.90;99.90
29713;DHT22;16623;53.632;10.016;2022-11-04T06:07:42;11.80;99.90
29713;DHT22;16623;53.632;10.016;2022-11-04T06:10:08;11.80;99.90
29713;DHT22;16623;53.632;10.016;2022-11-04T06:12:34;11.90;99.90
29713;DHT22;16623;53.632;10.016;2022-11-04T06:14:59;11.90;99.90
29713;DHT22;16623;53.632;10.016;2022-11-04T06:17:25;11.80;99.90
29713;DHT22;16623;53.632;10.016;2022-11-04T06:19:50;11.80;99.90
29713;DHT22;16623;53.632;10.016;2022-11-04T06:22:17;11.80;99.90
29713;DHT22;16623;53.632;10.016;2022-11-04T06:24:44;11.80;99.90
29713;DHT22;16623;53.632;10.016;2022-11-04T06:27:10;11.80;99.90
29713;DHT22;16623;53.632;10.016;2022-11-04T06:29:36;11.80;99.90
29713;DHT22;16623;53.632;10.016;2022-11-04T06:32:10;11.80;99.90
29713;DHT22;16623;53.632;10.016;2022-11-04T06:34:36;11.80;99.90
29713;DHT22;16623;53.632;10.016;2022-11-04T06:37:02;11.80;99.90
29713;DHT22;16623;53.632;10.016;2022-11-04T06:39:28;11.80;99.90
29713;DHT22;16623;53.632;10.016;2022-11-04T06:41:54;11.80;99.90
29713;DHT22;16623;53.632;10.016;2022-11-04T06:44:20;11.70;99.90
29713;DHT22;16623;53.632;10.016;2022-11-04T06:46:45;11.80;99.90
29713;DHT22;16623;53.632;10.016;2022-11-04T06:49:15;11.70;99.90
29713;DHT22;16623;53.632;10.016;2022-11-04T06:51:42;11.70;99.90
29713;DHT22;16623;53.632;10.016;2022-11-04T06:54:08;11.60;99.90
29713;DHT22;16623;53.632;10.016;2022-11-04T06:56:34;11.60;99.90
29713;DHT22;16623;53.632;10.016;2022-11-04T06:58:59;11.60;99.90
29713;DHT22;16623;53.632;10.016;2022-11-04T07:01:27;11.60;99.90
29713;DHT22;16623;53.632;10.016;2022-11-04T07:03:57;11.50;99.90
29713;DHT22;16623;53.632;10.016;2022-11-04T07:06:24;11.50;99.90
29713;DHT22;16623;53.632;10.016;2022-11-04T07:08:51;11.50;99.90
29713;DHT22;16623;53.632;10.016;2022-11-04T07:11:19;11.50;99.90
29713;DHT22;16623;53.632;10.016;2022-11-04T07:13:46;11.50;99.90
29713;DHT22;16623;53.632;10.016;2022-11-04T07:16:12;11.50;99.90
29713;DHT22;16623;53.632;10.016;2022-11-04T07:18:38;11.50;99.90
29713;DHT22;16623;53.632;10.016;2022-11-04T07:21:04;11.60;99.90
29713;DHT22;16623;53.632;10.016;2022-11-04T07:23:29;11.60;99.90
29713;DHT22;16623;53.632;10.016;2022-11-04T07:26:02;11.70;99.90
29713;DHT22;16623;53.632;10.016;2022-11-04T07:28:29;11.60;99.90
29713;DHT22;16623;53.632;10.016;2022-11-04T07:30:58;11.60;99.90
29713;DHT22;16623;53.632;10.016;2022-11-04T07:33:25;11.50;99.90
29713;DHT22;16623;53.632;10.016;2022-11-04T07:35:51;11.60;99.90
29713;DHT22;16623;53.632;10.016;2022-11-04T07:38:18;11.60;99.90
29713;DHT22;16623;53.632;10.016;2022-11-04T07:40:43;11.50;99.90
29713;DHT22;16623;53.632;10.016;2022-11-04T07:43:09;11.50;99.90
29713;DHT22;16623;53.632;10.016;2022-11-04T07:45:35;11.50;99.90
29713;DHT22;16623;53.632;10.016;2022-11-04T07:48:00;11.50;99.90
29713;DHT22;16623;53.632;10.016;2022-11-04T07:50:26;11.50;99.90
29713;DHT22;16623;53.632;10.016;2022-11-04T07:52:52;11.50;99.90
29713;DHT22;16623;53.632;10.016;2022-11-04T07:55:17;11.50;99.90
29713;DHT22;16623;53.632;10.016;2022-11-04T07:57:44;11.50;99.90
29713;DHT22;16623;53.632;10.016;2022-11-04T08:00:11;11.50;99.90
29713;DHT22;16623;53.632;10.016;2022-11-04T08:02:37;11.60;99.90
29713;DHT22;16623;53.632;10.016;2022-11-04T08:05:03;11.60;99.90
29713;DHT22;16623;53.632;10.016;2022-11-04T08:07:30;11.60;99.90
29713;DHT22;16623;53.632;10.016;2022-11-04T08:09:56;11.60;99.90
29713;DHT22;16623;53.632;10.016;2022-11-04T08:12:22;11.70;99.90
29713;DHT22;16623;53.632;10.016;2022-11-04T08:14:49;11.60;99.90
29713;DHT22;16623;53.632;10.016;2022-11-04T08:17:14;11.60;99.90
29713;DHT22;16623;53.632;10.016;2022-11-04T08:19:40;11.70;99.90
29713;DHT22;16623;53.632;10.016;2022-11-04T08:22:05;11.70;99.90
29713;DHT22;16623;53.632;10.016;2022-11-04T08:24:32;11.70;99.90
29713;DHT22;16623;53.632;10.016;2022-11-04T08:26:58;11.70;99.90
29713;DHT22;16623;53.632;10.016;2022-11-04T08:29:23;11.70;99.90
29713;DHT22;16623;53.632;10.016;2022-11-04T08:31:49;11.70;99.90
29713;DHT22;16623;53.632;10.016;2022-11-04T08:34:14;11.70;99.90
29713;DHT22;16623;53.632;10.016;2022-11-04T08:36:43;11.70;99.90
29713;DHT22;16623;53.632;10.016;2022-11-04T08:39:09;11.60;99.90
29713;DHT22;16623;53.632;10.016;2022-11-04T08:41:36;11.70;99.90
29713;DHT22;16623;53.632;10.016;2022-11-04T08:44:03;11.70;99.90
29713;DHT22;16623;53.632;10.016;2022-11-04T08:46:35;11.70;99.90
29713;DHT22;16623;53.632;10.016;2022-11-04T08:49:02;11.60;99.90
29713;DHT22;16623;53.632;10.016;2022-11-04T08:51:30;11.70;99.90
29713;DHT22;16623;53.632;10.016;2022-11-04T08:53:56;11.60;99.90
29713;DHT22;16623;53.632;10.016;2022-11-04T08:56:30;11.70;99.90
29713;DHT22;16623;53.632;10.016;2022-11-04T08:58:57;11.70;99.90
29713;DHT22;16623;53.632;10.016;2022-11-04T09:01:24;11.70;99.90
29713;DHT22;16623;53.632;10.016;2022-11-04T09:03:49;11.80;99.90
29713;DHT22;16623;53.632;10.016;2022-11-04T09:06:20;11.80;99.90
29713;DHT22;16623;53.632;10.016;2022-11-04T09:08:46;11.80;99.90
29713;DHT22;16623;53.632;10.016;2022-11-04T09:11:13;11.80;99.90
29713;DHT22;16623;53.632;10.016;2022-11-04T09:13:40;11.80;99.90
29713;DHT22;16623;53.632;10.016;2022-11-04T09:16:06;11.90;99.90
29713;DHT22;16623;53.632;10.016;2022-11-04T09:18:32;11.90;99.90
29713;DHT22;16623;53.632;10.016;2022-11-04T09:21:03;11.90;99.90
29713;DHT22;16623;53.632;10.016;2022-11-04T09:23:30;12.00;99.90
29713;DHT22;16623;53.632;10.016;2022-11-04T09:25:57;12.00;99.90
29713;DHT22;16623;53.632;10.016;2022-11-04T09:28:24;12.00;99.90
29713;DHT22;16623;53.632;10.016;2022-11-04T09:30:50;12.10;99.90
29713;DHT22;16623;53.632;10.016;2022-11-04T09:33:16;12.10;99.90
29713;DHT22;16623;53.632;10.016;2022-11-04T09:35:41;12.10;99.90
29713;DHT22;16623;53.632;10.016;2022-11-04T09:38:07;12.10;99.90
29713;DHT22;16623;53.632;10.016;2022-11-04T09:40:34;12.10;99.90
29713;DHT22;16623;53.632;10.016;2022-11-04T09:46:12;12.20;99.90
29713;DHT22;16623;53.632;10.016;2022-11-04T09:48:50;12.20;99.90
29713;DHT22;16623;53.632;10.016;2022-11-04T09:51:20;12.10;99.90
29713;DHT22;16623;53.632;10.016;2022-11-04T09:53:50;12.10;99.90
29713;DHT22;16623;53.632;10.016;2022-11-04T09:56:28;12.10;99.90
29713;DHT22;16623;53.632;10.016;2022-11-04T09:58:55;12.10;99.90
29713;DHT22;16623;53.632;10.016;2022-11-04T10:01:36;12.20;99.90
29713;DHT22;16623;53.632;10.016;2022-11-04T10:10:08;12.40;99.90
29713;DHT22;16623;53.632;10.016;2022-11-04T10:12:54;12.50;99.90
29713;DHT22;16623;53.632;10.016;2022-11-04T10:21:01;12.40;99.90
29713;DHT22;16623;53.632;10.016;2022-11-04T10:23:33;12.40;99.90
29713;DHT22;16623;53.632;10.016;2022-11-04T10:26:14;12.30;99.90
29713;DHT22;16623;53.632;10.016;2022-11-04T10:28:44;12.30;99.90
29713;DHT22;16623;53.632;10.016;2022-11-04T10:31:16;12.30;99.90
29713;DHT22;16623;53.632;10.016;2022-11-04T10:33:46;12.40;99.90
29713;DHT22;16623;53.632;10.016;2022-11-04T10:36:14;12.40;99.90
29713;DHT22;16623;53.632;10.016;2022-11-04T10:38:49;12.40;99.90
29713;DHT22;16623;53.632;10.016;2022-11-04T10:41:34;12.50;99.90
29713;DHT22;16623;53.632;10.016;2022-11-04T10:44:15;12.50;99.90
29713;DHT22;16623;53.632;10.016;2022-11-04T10:52:19;12.80;99.90
29713;DHT22;16623;53.632;10.016;2022-11-04T10:54:47;12.90;99.90
29713;DHT22;16623;53.632;10.016;2022-11-04T10:57:17;12.90;99.90
29713;DHT22;16623;53.632;10.016;2022-11-04T11:02:44;12.80;99.90
29713;DHT22;16623;53.632;10.016;2022-11-04T11:07:47;13.00;99.90
29713;DHT22;16623;53.632;10.016;2022-11-04T11:10:26;13.00;99.90
29713;DHT22;16623;53.632;10.016;2022-11-04T11:13:01;13.10;99.90
29713;DHT22;16623;53.632;10.016;2022-11-04T11:20:38;13.10;99.90
29713;DHT22;16623;53.632;10.016;2022-11-04T11:23:32;13.10;99.90
29713;DHT22;16623;53.632;10.016;2022-11-04T11:25:59;13.10;99.90
29713;DHT22;16623;53.632;10.016;2022-11-04T11:28:25;13.20;99.90
29713;DHT22;16623;53.632;10.016;2022-11-04T11:30:57;13.30;99.90
29713;DHT22;16623;53.632;10.016;2022-11-04T11:33:30;13.30;99.90
29713;DHT22;16623;53.632;10.016;2022-11-04T11:36:07;13.40;99.90
29713;DHT22;16623;53.632;10.016;2022-11-04T11:38:38;13.40;99.90
29713;DHT22;16623;53.632;10.016;2022-11-04T11:41:15;13.40;99.90
29713;DHT22;16623;53.632;10.016;2022-11-04T11:43:49;13.40;99.90
29713;DHT22;16623;53.632;10.016;2022-11-04T11:46:21;13.30;99.90
29713;DHT22;16623;53.632;10.016;2022-11-04T11:48:56;13.30;99.90
29713;DHT22;16623;53.632;10.016;2022-11-04T11:51:32;13.40;99.90
29713;DHT22;16623;53.632;10.016;2022-11-04T11:54:16;13.60;99.90
29713;DHT22;16623;53.632;10.016;2022-11-04T11:56:47;13.50;99.90
29713;DHT22;16623;53.632;10.016;2022-11-04T12:02:28;13.60;99.90
29713;DHT22;16623;53.632;10.016;2022-11-04T12:04:57;13.60;99.90
29713;DHT22;16623;53.632;10.016;2022-11-04T12:07:35;13.50;99.90
29713;DHT22;16623;53.632;10.016;2022-11-04T12:10:12;13.60;99.90
29713;DHT22;16623;53.632;10.016;2022-11-04T12:12:52;13.60;99.90
29713;DHT22;16623;53.632;10.016;2022-11-04T12:20:48;13.40;99.90
29713;DHT22;16623;53.632;10.016;2022-11-04T12:23:56;13.40;99.90
29713;DHT22;16623;53.632;10.016;2022-11-04T12:29:22;13.30;99.90
29713;DHT22;16623;53.632;10.016;2022-11-04T12:35:00;13.30;99.90
29713;DHT22;16623;53.632;10.016;2022-11-04T12:37:38;13.50;99.90
29713;DHT22;16623;53.632;10.016;2022-11-04T12:40:20;13.60;99.90
29713;DHT22;16623;53.632;10.016;2022-11-04T12:43:00;13.60;99.90
29713;DHT22;16623;53.632;10.016;2022-11-04T12:45:42;13.80;99.90
29713;DHT22;16623;53.632;10.016;2022-11-04T12:56:36;13.90;99.90
29713;DHT22;16623;53.632;10.016;2022-11-04T12:59:32;13.90;99.90
29713;DHT22;16623;53.632;10.016;2022-11-04T13:02:12;13.90;99.90
29713;DHT22;16623;53.632;10.016;2022-11-04T13:04:59;13.80;99.90
29713;DHT22;16623;53.632;10.016;2022-11-04T13:07:40;13.70;99.90
29713;DHT22;16623;53.632;10.016;2022-11-04T13:10:37;13.70;99.90
29713;DHT22;16623;53.632;10.016;2022-11-04T13:13:05;13.70;99.90
29713;DHT22;16623;53.632;10.016;2022-11-04T13:16:08;13.60;99.90
29713;DHT22;16623;53.632;10.016;2022-11-04T13:18:39;13.70;99.90
29713;DHT22;16623;53.632;10.016;2022-11-04T13:21:25;13.70;99.90
29713;DHT22;16623;53.632;10.016;2022-11-04T13:24:03;13.60;99.90
29713;DHT22;16623;53.632;10.016;2022-11-04T13:26:31;13.60;99.90
29713;DHT22;16623;53.632;10.016;2022-11-04T13:29:13;13.50;99.90
29713;DHT22;16623;53.632;10.016;2022-11-04T13:31:58;13.50;99.90
29713;DHT22;16623;53.632;10.016;2022-11-04T13:34:40;13.60;99.90
29713;DHT22;16623;53.632;10.016;2022-11-04T14:53:58;12.90;99.90
29713;DHT22;16623;53.632;10.016;2022-11-04T14:56:26;12.80;99.90
29713;DHT22;16623;53.632;10.016;2022-11-04T14:59:04;12.70;99.90
29713;DHT22;16623;53.632;10.016;2022-11-04T15:01:32;12.60;99.90
29713;DHT22;16623;53.632;10.016;2022-11-04T15:04:05;12.70;99.90
29713;DHT22;16623;53.632;10.016;2022-11-04T15:06:31;12.60;99.90
29713;DHT22;16623;53.632;10.016;2022-11-04T15:08:57;12.60;99.90
29713;DHT22;16623;53.632;10.016;2022-11-04T15:11:26;12.60;99.90
29713;DHT22;16623;53.632;10.016;2022-11-04T15:14:19;12.60;99.90
29713;DHT22;16623;53.632;10.016;2022-11-04T15:16:54;12.50;99.90
29713;DHT22;16623;53.632;10.016;2022-11-04T15:19:29;12.50;99.90
29713;DHT22;16623;53.632;10.016;2022-11-04T15:21:57;12.40;99.90
29713;DHT22;16623;53.632;10.016;2022-11-04T15:24:23;12.40;99.90
29713;DHT22;16623;53.632;10.016;2022-11-04T15:26:51;12.40;99.90
29713;DHT22;16623;53.632;10.016;2022-11-04T15:29:21;12.40;99.90
29713;DHT22;16623;53.632;10.016;2022-11-04T15:31:56;12.30;99.90
29713;DHT22;16623;53.632;10.016;2022-11-04T15:34:25;12.30;99.90
29713;DHT22;16623;53.632;10.016;2022-11-04T15:36:55;12.20;99.90
29713;DHT22;16623;53.632;10.016;2022-11-04T15:39:25;12.20;99.90
29713;DHT22;16623;53.632;10.016;2022-11-04T15:41:57;12.20;99.90
29713;DHT22;16623;53.632;10.016;2022-11-04T15:44:50;12.10;99.90
29713;DHT22;16623;53.632;10.016;2022-11-04T15:49:49;12.00;99.90
29713;DHT22;16623;53.632;10.016;2022-11-04T15:52:20;12.00;99.90
29713;DHT22;16623;53.632;10.016;2022-11-04T15:54:49;12.00;99.90
29713;DHT22;16623;53.632;10.016;2022-11-04T15:57:20;11.90;99.90
29713;DHT22;16623;53.632;10.016;2022-11-04T16:02:46;12.00;99.90
29713;DHT22;16623;53.632;10.016;2022-11-04T16:07:45;11.90;99.90
29713;DHT22;16623;53.632;10.016;2022-11-04T16:10:27;11.90;99.90
29713;DHT22;16623;53.632;10.016;2022-11-04T16:12:59;12.00;99.90
29713;DHT22;16623;53.632;10.016;2022-11-04T16:18:40;11.90;99.90
29713;DHT22;16623;53.632;10.016;2022-11-04T16:21:31;12.00;99.90
29713;DHT22;16623;53.632;10.016;2022-11-04T16:24:01;12.00;99.90
29713;DHT22;16623;53.632;10.016;2022-11-04T16:26:40;12.00;99.90
29713;DHT22;16623;53.632;10.016;2022-11-04T16:29:20;12.00;99.90
29713;DHT22;16623;53.632;10.016;2022-11-04T16:34:37;12.00;99.90
29713;DHT22;16623;53.632;10.016;2022-11-04T16:37:03;12.10;99.90
29713;DHT22;16623;53.632;10.016;2022-11-04T16:39:29;12.00;99.90
29713;DHT22;16623;53.632;10.016;2022-11-04T16:41:55;12.00;99.90
29713;DHT22;16623;53.632;10.016;2022-11-04T16:44:22;11.90;99.90
29713;DHT22;16623;53.632;10.016;2022-11-04T16:46:48;11.90;99.90
29713;DHT22;16623;53.632;10.016;2022-11-04T16:49:15;11.80;99.90
29713;DHT22;16623;53.632;10.016;2022-11-04T16:51:44;11.80;99.90
29713;DHT22;16623;53.632;10.016;2022-11-04T16:54:10;11.70;99.90
29713;DHT22;16623;53.632;10.016;2022-11-04T16:56:36;11.70;99.90
29713;DHT22;16623;53.632;10.016;2022-11-04T16:59:03;11.60;99.90
29713;DHT22;16623;53.632;10.016;2022-11-04T17:01:28;11.60;99.90
29713;DHT22;16623;53.632;10.016;2022-11-04T17:03:54;11.60;99.90
29713;DHT22;16623;53.632;10.016;2022-11-04T17:06:20;11.60;99.90
29713;DHT22;16623;53.632;10.016;2022-11-04T17:08:45;11.60;99.90
29713;DHT22;16623;53.632;10.016;2022-11-04T17:11:11;11.60;99.90
29713;DHT22;16623;53.632;10.016;2022-11-04T17:13:37;11.60;99.90
29713;DHT22;16623;53.632;10.016;2022-11-04T17:16:05;11.60;99.90
29713;DHT22;16623;53.632;10.016;2022-11-04T17:18:32;11.60;99.90
29713;DHT22;16623;53.632;10.016;2022-11-04T17:20:58;11.60;99.90
29713;DHT22;16623;53.632;10.016;2022-11-04T17:23:25;11.60;99.90
29713;DHT22;16623;53.632;10.016;2022-11-04T17:25:51;11.60;99.90
29713;DHT22;16623;53.632;10.016;2022-11-04T17:28:19;11.60;99.90
29713;DHT22;16623;53.632;10.016;2022-11-04T17:30:44;11.60;99.90
29713;DHT22;16623;53.632;10.016;2022-11-04T17:33:15;11.50;99.90
29713;DHT22;16623;53.632;10.016;2022-11-04T17:35:42;11.60;99.90
29713;DHT22;16623;53.632;10.016;2022-11-04T17:38:10;11.50;99.90
29713;DHT22;16623;53.632;10.016;2022-11-04T17:40:36;11.50;99.90
29713;DHT22;16623;53.632;10.016;2022-11-04T17:43:22;11.40;99.90
29713;DHT22;16623;53.632;10.016;2022-11-04T17:46:06;11.40;99.90
29713;DHT22;16623;53.632;10.016;2022-11-04T17:48:50;11.40;99.90
29713;DHT22;16623;53.632;10.016;2022-11-04T17:51:15;11.40;99.90
29713;DHT22;16623;53.632;10.016;2022-11-04T17:53:41;11.40;99.90
29713;DHT22;16623;53.632;10.016;2022-11-04T17:56:17;11.30;99.90
29713;DHT22;16623;53.632;10.016;2022-11-04T17:58:44;11.40;99.90
29713;DHT22;16623;53.632;10.016;2022-11-04T18:01:11;11.30;99.90
29713;DHT22;16623;53.632;10.016;2022-11-04T18:03:38;11.20;99.90
29713;DHT22;16623;53.632;10.016;2022-11-04T18:06:05;11.30;99.90
29713;DHT22;16623;53.632;10.016;2022-11-04T18:08:31;11.20;99.90
29713;DHT22;16623;53.632;10.016;2022-11-04T18:11:02;11.30;99.90
29713;DHT22;16623;53.632;10.016;2022-11-04T18:13:28;11.30;99.90
29713;DHT22;16623;53.632;10.016;2022-11-04T18:15:54;11.30;99.90
29713;DHT22;16623;53.632;10.016;2022-11-04T18:18:20;11.10;99.90
29713;DHT22;16623;53.632;10.016;2022-11-04T18:20:46;11.00;99.90
29713;DHT22;16623;53.632;10.016;2022-11-04T18:23:12;10.90;99.90
29713;DHT22;16623;53.632;10.016;2022-11-04T18:25:39;11.00;99.90
29713;DHT22;16623;53.632;10.016;2022-11-04T18:28:05;11.00;99.90
29713;DHT22;16623;53.632;10.016;2022-11-04T18:30:31;10.90;99.90
29713;DHT22;16623;53.632;10.016;2022-11-04T18:32:56;10.90;99.90
29713;DHT22;16623;53.632;10.016;2022-11-04T18:35:22;10.80;99.90
29713;DHT22;16623;53.632;10.016;2022-11-04T18:37:48;10.90;99.90
29713;DHT22;16623;53.632;10.016;2022-11-04T18:40:15;10.90;99.90
29713;DHT22;16623;53.632;10.016;2022-11-04T18:42:41;10.80;99.90
29713;DHT22;16623;53.632;10.016;2022-11-04T18:45:07;10.80;99.90
29713;DHT22;16623;53.632;10.016;2022-11-04T18:47:33;10.70;99.90
29713;DHT22;16623;53.632;10.016;2022-11-04T18:49:58;10.70;99.90